Airfield :
LOGIN :

Register | Disclaimer

   EN    FR    IT 

 










Legend :    VFR   Marginal VFR   IFR   Intensive IFR   Very Intensive IFR
Visi :
Ceiling :
>= 8 km
>= 3000ft
5 to 8 km
1000 to 3000 ft
1500m to 5 km
500 to 1000 ft
800 to 1500m
200 to 500 ft
< 800m
< 200 ft
Symbols :   Thunderstorms  Fog  Heavy snow  Heavy precipitations  Wind > 20 kt
SIGMETs :     Misc.  Thunderstorms  Icing  Turbulence  Mountain Waves  Volcanic Ashes






- Airport Elevation : 1302 ft
- IATA code : GNB


LFLS - Grenoble / St. Geoirs

CURRENT METAR :
  • 280700Z AUTO 08005KT 9999 FEW041 OVC150 05/03 Q1015 TEMPO RA

EXPIRED METARs :
  • 280630Z AUTO 09005KT 9999 BKN043 OVC110 05/03 Q1015 TEMPO RA
  • 280600Z AUTO 09004KT 9999 OVC043 06/03 Q1015 TEMPO RA
  • 280530Z AUTO VRB03KT 9999 OVC042 06/03 Q1015 TEMPO RA
  • 280500Z AUTO VRB02KT 9999 OVC043 06/02 Q1015 NOSIG

TAF TAF LFLS
Valid from the 28 at 03:00 until the 29 at 03:00 UTC


280200Z 2803/2903 27006KT 9999 BKN040 BKN120
BECMG 2805/2807 09005KT
TEMPO 2807/2809 RA
TEMPO 2809/2817 4000 RA BKN013 SCT030TCU
PROB40
TEMPO 2817/2824 3000 BR BKN004
TEMPO 2900/2903 2000 RA BKN008 SCT020TCU
ATIS : +33 4 76 65 55 89



MET'MAP, your aeronautical weather chart ! - Copyright ORBIFLY December 2007 - Disclaimer

ORBIFLY MET'MAP TEAM :

Programming & Development : Alexandra Zaïnal
Original concept : Baudouin d'Aumeries
Technical & hardware support : Manuel Goepfert
Assistance : Marc-Olivier Méhu




SOURCES & CREDITS :

   NOAA